sensor_id;sensor_type;location;lat;lon;timestamp;P1;durP1;ratioP1;P2;durP2;ratioP2
920;SDS011;447;51.332;6.778;2022-11-11T00:02:19;5.87;;;3.37;;
920;SDS011;447;51.332;6.778;2022-11-11T00:05:08;5.23;;;3.27;;
920;SDS011;447;51.332;6.778;2022-11-11T00:07:55;8.47;;;3.67;;
920;SDS011;447;51.332;6.778;2022-11-11T00:10:43;6.70;;;3.40;;
920;SDS011;447;51.332;6.778;2022-11-11T00:13:29;5.00;;;3.63;;
920;SDS011;447;51.332;6.778;2022-11-11T00:16:19;5.83;;;3.40;;
920;SDS011;447;51.332;6.778;2022-11-11T00:19:04;5.40;;;3.90;;
920;SDS011;447;51.332;6.778;2022-11-11T00:22:18;5.17;;;3.60;;
920;SDS011;447;51.332;6.778;2022-11-11T00:25:23;5.03;;;3.13;;
920;SDS011;447;51.332;6.778;2022-11-11T00:28:11;7.83;;;3.80;;
920;SDS011;447;51.332;6.778;2022-11-11T00:31:05;6.57;;;3.10;;
920;SDS011;447;51.332;6.778;2022-11-11T00:33:54;6.80;;;4.03;;
920;SDS011;447;51.332;6.778;2022-11-11T00:36:38;9.43;;;3.87;;
920;SDS011;447;51.332;6.778;2022-11-11T00:39:25;4.97;;;3.70;;
920;SDS011;447;51.332;6.778;2022-11-11T00:42:12;6.10;;;3.60;;
920;SDS011;447;51.332;6.778;2022-11-11T00:45:02;8.27;;;3.90;;
920;SDS011;447;51.332;6.778;2022-11-11T00:47:49;5.57;;;3.50;;
920;SDS011;447;51.332;6.778;2022-11-11T00:51:01;9.30;;;3.70;;
920;SDS011;447;51.332;6.778;2022-11-11T00:53:48;9.50;;;4.00;;
920;SDS011;447;51.332;6.778;2022-11-11T00:56:35;5.57;;;3.90;;
920;SDS011;447;51.332;6.778;2022-11-11T00:59:22;4.53;;;3.43;;
920;SDS011;447;51.332;6.778;2022-11-11T01:02:06;4.80;;;3.57;;
920;SDS011;447;51.332;6.778;2022-11-11T01:04:53;5.33;;;4.00;;
920;SDS011;447;51.332;6.778;2022-11-11T01:07:40;6.50;;;3.83;;
920;SDS011;447;51.332;6.778;2022-11-11T01:10:25;7.07;;;3.97;;
920;SDS011;447;51.332;6.778;2022-11-11T01:13:30;5.43;;;3.53;;
920;SDS011;447;51.332;6.778;2022-11-11T01:16:22;8.13;;;3.80;;
920;SDS011;447;51.332;6.778;2022-11-11T01:19:09;5.50;;;3.30;;
920;SDS011;447;51.332;6.778;2022-11-11T01:21:57;5.50;;;3.80;;
920;SDS011;447;51.332;6.778;2022-11-11T01:24:41;4.13;;;3.40;;
920;SDS011;447;51.332;6.778;2022-11-11T01:27:28;5.63;;;3.67;;
920;SDS011;447;51.332;6.778;2022-11-11T01:30:13;7.63;;;4.40;;
920;SDS011;447;51.332;6.778;2022-11-11T01:33:00;4.63;;;3.77;;
920;SDS011;447;51.332;6.778;2022-11-11T01:35:50;4.37;;;3.97;;
920;SDS011;447;51.332;6.778;2022-11-11T01:38:34;7.13;;;4.03;;
920;SDS011;447;51.332;6.778;2022-11-11T01:41:23;6.20;;;3.80;;
920;SDS011;447;51.332;6.778;2022-11-11T01:44:41;6.10;;;3.43;;
920;SDS011;447;51.332;6.778;2022-11-11T01:47:26;5.53;;;3.80;;
920;SDS011;447;51.332;6.778;2022-11-11T01:50:30;4.17;;;3.37;;
920;SDS011;447;51.332;6.778;2022-11-11T01:53:20;5.20;;;4.07;;
920;SDS011;447;51.332;6.778;2022-11-11T01:56:07;8.83;;;3.93;;
920;SDS011;447;51.332;6.778;2022-11-11T01:58:57;6.20;;;3.93;;
920;SDS011;447;51.332;6.778;2022-11-11T02:01:46;8.50;;;4.27;;
920;SDS011;447;51.332;6.778;2022-11-11T02:04:33;7.87;;;4.50;;
920;SDS011;447;51.332;6.778;2022-11-11T02:07:38;6.27;;;3.93;;
920;SDS011;447;51.332;6.778;2022-11-11T02:10:25;4.60;;;3.70;;
920;SDS011;447;51.332;6.778;2022-11-11T02:13:13;7.60;;;4.37;;
920;SDS011;447;51.332;6.778;2022-11-11T02:16:17;4.70;;;3.67;;
920;SDS011;447;51.332;6.778;2022-11-11T02:19:02;6.63;;;3.90;;
920;SDS011;447;51.332;6.778;2022-11-11T02:21:49;5.07;;;3.30;;
920;SDS011;447;51.332;6.778;2022-11-11T02:24:39;4.70;;;3.33;;
920;SDS011;447;51.332;6.778;2022-11-11T02:27:27;4.33;;;3.80;;
920;SDS011;447;51.332;6.778;2022-11-11T02:30:19;4.47;;;3.53;;
920;SDS011;447;51.332;6.778;2022-11-11T02:33:04;10.67;;;3.80;;
920;SDS011;447;51.332;6.778;2022-11-11T02:35:50;5.07;;;3.67;;
920;SDS011;447;51.332;6.778;2022-11-11T02:38:41;5.40;;;4.63;;
920;SDS011;447;51.332;6.778;2022-11-11T02:41:29;5.33;;;4.70;;
920;SDS011;447;51.332;6.778;2022-11-11T02:44:34;9.00;;;4.23;;
920;SDS011;447;51.332;6.778;2022-11-11T02:47:23;6.43;;;3.80;;
920;SDS011;447;51.332;6.778;2022-11-11T02:50:09;6.43;;;4.43;;
920;SDS011;447;51.332;6.778;2022-11-11T02:52:53;5.43;;;3.70;;
920;SDS011;447;51.332;6.778;2022-11-11T02:55:38;5.13;;;3.90;;
920;SDS011;447;51.332;6.778;2022-11-11T02:58:22;6.77;;;3.57;;
920;SDS011;447;51.332;6.778;2022-11-11T03:01:09;5.20;;;4.07;;
920;SDS011;447;51.332;6.778;2022-11-11T03:03:54;6.33;;;4.07;;
920;SDS011;447;51.332;6.778;2022-11-11T03:06:43;4.30;;;3.53;;
920;SDS011;447;51.332;6.778;2022-11-11T03:09:27;8.53;;;4.00;;
920;SDS011;447;51.332;6.778;2022-11-11T03:12:12;6.03;;;3.80;;
920;SDS011;447;51.332;6.778;2022-11-11T03:14:59;5.23;;;3.90;;
920;SDS011;447;51.332;6.778;2022-11-11T03:17:43;6.80;;;4.73;;
920;SDS011;447;51.332;6.778;2022-11-11T03:20:31;6.83;;;4.30;;
920;SDS011;447;51.332;6.778;2022-11-11T03:23:56;5.60;;;3.80;;
920;SDS011;447;51.332;6.778;2022-11-11T03:26:40;4.70;;;3.50;;
920;SDS011;447;51.332;6.778;2022-11-11T03:29:25;4.60;;;3.47;;
920;SDS011;447;51.332;6.778;2022-11-11T03:32:10;4.77;;;3.47;;
920;SDS011;447;51.332;6.778;2022-11-11T03:34:56;4.30;;;3.90;;
920;SDS011;447;51.332;6.778;2022-11-11T03:37:41;6.07;;;4.13;;
920;SDS011;447;51.332;6.778;2022-11-11T03:40:45;6.27;;;3.57;;
920;SDS011;447;51.332;6.778;2022-11-11T03:43:31;8.43;;;4.00;;
920;SDS011;447;51.332;6.778;2022-11-11T03:46:20;4.93;;;3.53;;
920;SDS011;447;51.332;6.778;2022-11-11T03:49:07;5.43;;;3.90;;
920;SDS011;447;51.332;6.778;2022-11-11T03:51:51;5.40;;;3.50;;
920;SDS011;447;51.332;6.778;2022-11-11T03:54:38;5.30;;;3.70;;
920;SDS011;447;51.332;6.778;2022-11-11T03:57:23;5.27;;;3.17;;
920;SDS011;447;51.332;6.778;2022-11-11T04:00:19;5.57;;;3.10;;
920;SDS011;447;51.332;6.778;2022-11-11T04:03:13;5.47;;;3.67;;
920;SDS011;447;51.332;6.778;2022-11-11T04:06:20;6.77;;;3.70;;
920;SDS011;447;51.332;6.778;2022-11-11T04:09:24;5.87;;;3.47;;
920;SDS011;447;51.332;6.778;2022-11-11T04:12:27;8.30;;;3.47;;
920;SDS011;447;51.332;6.778;2022-11-11T04:15:14;4.83;;;3.33;;
920;SDS011;447;51.332;6.778;2022-11-11T04:18:18;6.60;;;3.27;;
920;SDS011;447;51.332;6.778;2022-11-11T04:21:22;4.93;;;3.50;;
920;SDS011;447;51.332;6.778;2022-11-11T04:24:26;3.73;;;3.10;;
920;SDS011;447;51.332;6.778;2022-11-11T04:27:29;5.33;;;3.63;;
920;SDS011;447;51.332;6.778;2022-11-11T04:30:14;4.70;;;3.30;;
920;SDS011;447;51.332;6.778;2022-11-11T04:33:01;5.97;;;3.90;;
920;SDS011;447;51.332;6.778;2022-11-11T04:35:48;6.23;;;4.10;;
920;SDS011;447;51.332;6.778;2022-11-11T04:38:33;5.13;;;3.20;;
920;SDS011;447;51.332;6.778;2022-11-11T04:41:37;6.00;;;3.17;;
920;SDS011;447;51.332;6.778;2022-11-11T04:44:21;5.13;;;3.53;;
920;SDS011;447;51.332;6.778;2022-11-11T04:47:27;3.97;;;3.53;;
920;SDS011;447;51.332;6.778;2022-11-11T04:50:14;6.23;;;3.93;;
920;SDS011;447;51.332;6.778;2022-11-11T04:52:59;4.80;;;3.30;;
920;SDS011;447;51.332;6.778;2022-11-11T04:55:52;6.90;;;3.73;;
920;SDS011;447;51.332;6.778;2022-11-11T04:58:58;7.40;;;3.97;;
920;SDS011;447;51.332;6.778;2022-11-11T05:02:03;7.60;;;3.47;;
920;SDS011;447;51.332;6.778;2022-11-11T05:05:06;4.80;;;3.90;;
920;SDS011;447;51.332;6.778;2022-11-11T05:07:53;5.30;;;3.43;;
920;SDS011;447;51.332;6.778;2022-11-11T05:10:59;5.03;;;3.30;;
920;SDS011;447;51.332;6.778;2022-11-11T05:13:46;5.43;;;2.73;;
920;SDS011;447;51.332;6.778;2022-11-11T05:16:50;6.50;;;3.70;;
920;SDS011;447;51.332;6.778;2022-11-11T05:19:58;7.57;;;3.20;;
920;SDS011;447;51.332;6.778;2022-11-11T05:23:04;5.77;;;3.50;;
920;SDS011;447;51.332;6.778;2022-11-11T05:25:51;5.40;;;3.40;;
920;SDS011;447;51.332;6.778;2022-11-11T05:28:35;3.30;;;3.00;;
920;SDS011;447;51.332;6.778;2022-11-11T05:31:23;6.17;;;2.87;;
920;SDS011;447;51.332;6.778;2022-11-11T05:34:07;3.63;;;2.87;;
920;SDS011;447;51.332;6.778;2022-11-11T05:36:52;5.10;;;3.33;;
920;SDS011;447;51.332;6.778;2022-11-11T05:39:37;5.80;;;3.47;;
920;SDS011;447;51.332;6.778;2022-11-11T05:42:24;5.13;;;2.83;;
920;SDS011;447;51.332;6.778;2022-11-11T05:45:08;4.60;;;3.30;;
920;SDS011;447;51.332;6.778;2022-11-11T05:47:59;4.60;;;3.10;;
920;SDS011;447;51.332;6.778;2022-11-11T05:50:47;3.40;;;3.10;;
920;SDS011;447;51.332;6.778;2022-11-11T05:53:31;7.33;;;3.30;;
920;SDS011;447;51.332;6.778;2022-11-11T05:56:32;4.90;;;3.00;;
920;SDS011;447;51.332;6.778;2022-11-11T05:59:16;7.63;;;3.30;;
920;SDS011;447;51.332;6.778;2022-11-11T06:02:01;4.60;;;3.10;;
920;SDS011;447;51.332;6.778;2022-11-11T06:04:49;4.20;;;3.20;;
920;SDS011;447;51.332;6.778;2022-11-11T06:07:38;3.80;;;3.03;;
920;SDS011;447;51.332;6.778;2022-11-11T06:10:28;5.47;;;3.33;;
920;SDS011;447;51.332;6.778;2022-11-11T06:13:18;3.80;;;3.37;;
920;SDS011;447;51.332;6.778;2022-11-11T06:16:05;6.10;;;2.87;;
920;SDS011;447;51.332;6.778;2022-11-11T06:18:51;3.57;;;2.73;;
920;SDS011;447;51.332;6.778;2022-11-11T06:21:35;4.60;;;3.53;;
920;SDS011;447;51.332;6.778;2022-11-11T06:24:40;4.07;;;2.60;;
920;SDS011;447;51.332;6.778;2022-11-11T06:27:24;5.60;;;4.10;;
920;SDS011;447;51.332;6.778;2022-11-11T06:30:09;6.93;;;3.80;;
920;SDS011;447;51.332;6.778;2022-11-11T06:32:53;6.67;;;4.23;;
920;SDS011;447;51.332;6.778;2022-11-11T06:35:38;4.10;;;3.60;;
920;SDS011;447;51.332;6.778;2022-11-11T06:38:28;7.10;;;3.50;;
920;SDS011;447;51.332;6.778;2022-11-11T06:41:15;4.73;;;3.17;;
920;SDS011;447;51.332;6.778;2022-11-11T06:44:00;5.93;;;3.57;;
920;SDS011;447;51.332;6.778;2022-11-11T06:46:44;4.80;;;3.67;;
920;SDS011;447;51.332;6.778;2022-11-11T06:49:31;3.50;;;2.70;;
920;SDS011;447;51.332;6.778;2022-11-11T06:52:24;7.87;;;3.30;;
920;SDS011;447;51.332;6.778;2022-11-11T06:55:12;6.50;;;3.23;;
920;SDS011;447;51.332;6.778;2022-11-11T06:58:03;5.33;;;3.03;;
920;SDS011;447;51.332;6.778;2022-11-11T07:00:57;5.90;;;2.97;;
920;SDS011;447;51.332;6.778;2022-11-11T07:03:41;8.53;;;4.57;;
920;SDS011;447;51.332;6.778;2022-11-11T07:06:28;4.47;;;3.47;;
920;SDS011;447;51.332;6.778;2022-11-11T07:09:12;4.70;;;3.40;;
920;SDS011;447;51.332;6.778;2022-11-11T07:11:59;6.33;;;3.67;;
920;SDS011;447;51.332;6.778;2022-11-11T07:14:46;4.13;;;3.33;;
920;SDS011;447;51.332;6.778;2022-11-11T07:17:31;6.23;;;3.73;;
920;SDS011;447;51.332;6.778;2022-11-11T07:20:18;9.60;;;3.87;;
920;SDS011;447;51.332;6.778;2022-11-11T07:23:08;7.97;;;3.93;;
920;SDS011;447;51.332;6.778;2022-11-11T07:26:01;6.27;;;3.80;;
920;SDS011;447;51.332;6.778;2022-11-11T07:28:46;5.83;;;3.93;;
920;SDS011;447;51.332;6.778;2022-11-11T07:31:35;5.83;;;3.33;;
920;SDS011;447;51.332;6.778;2022-11-11T07:34:22;3.93;;;3.00;;
920;SDS011;447;51.332;6.778;2022-11-11T07:37:07;4.33;;;3.37;;
920;SDS011;447;51.332;6.778;2022-11-11T07:39:55;5.63;;;3.60;;
920;SDS011;447;51.332;6.778;2022-11-11T07:42:44;8.30;;;3.57;;
920;SDS011;447;51.332;6.778;2022-11-11T07:45:31;5.20;;;3.47;;
920;SDS011;447;51.332;6.778;2022-11-11T07:48:16;5.60;;;3.30;;
920;SDS011;447;51.332;6.778;2022-11-11T07:51:03;4.00;;;3.10;;
920;SDS011;447;51.332;6.778;2022-11-11T07:53:50;4.40;;;3.40;;
920;SDS011;447;51.332;6.778;2022-11-11T07:56:37;4.70;;;3.50;;
920;SDS011;447;51.332;6.778;2022-11-11T07:59:22;6.90;;;3.90;;
920;SDS011;447;51.332;6.778;2022-11-11T08:02:10;4.73;;;3.37;;
920;SDS011;447;51.332;6.778;2022-11-11T08:04:58;4.43;;;3.23;;
920;SDS011;447;51.332;6.778;2022-11-11T08:07:42;4.67;;;3.60;;
920;SDS011;447;51.332;6.778;2022-11-11T08:10:26;6.63;;;3.70;;
920;SDS011;447;51.332;6.778;2022-11-11T08:13:11;6.37;;;3.23;;
920;SDS011;447;51.332;6.778;2022-11-11T08:16:19;4.43;;;3.10;;
920;SDS011;447;51.332;6.778;2022-11-11T08:19:06;6.33;;;3.67;;
920;SDS011;447;51.332;6.778;2022-11-11T08:21:51;5.40;;;3.30;;
920;SDS011;447;51.332;6.778;2022-11-11T08:24:38;6.30;;;3.67;;
920;SDS011;447;51.332;6.778;2022-11-11T08:27:25;4.73;;;3.87;;
920;SDS011;447;51.332;6.778;2022-11-11T08:30:10;4.30;;;3.70;;
920;SDS011;447;51.332;6.778;2022-11-11T08:33:04;5.47;;;3.50;;
920;SDS011;447;51.332;6.778;2022-11-11T08:35:49;5.70;;;3.20;;
920;SDS011;447;51.332;6.778;2022-11-11T08:38:37;4.43;;;3.90;;
920;SDS011;447;51.332;6.778;2022-11-11T08:41:22;4.57;;;3.90;;
920;SDS011;447;51.332;6.778;2022-11-11T08:44:08;5.80;;;4.07;;
920;SDS011;447;51.332;6.778;2022-11-11T08:46:52;4.40;;;3.83;;
920;SDS011;447;51.332;6.778;2022-11-11T08:49:37;4.63;;;3.57;;
920;SDS011;447;51.332;6.778;2022-11-11T08:52:21;6.63;;;4.03;;
920;SDS011;447;51.332;6.778;2022-11-11T08:55:06;6.13;;;4.47;;
920;SDS011;447;51.332;6.778;2022-11-11T08:57:57;5.00;;;4.50;;
920;SDS011;447;51.332;6.778;2022-11-11T09:00:44;4.97;;;3.67;;
920;SDS011;447;51.332;6.778;2022-11-11T09:03:32;4.80;;;3.83;;
920;SDS011;447;51.332;6.778;2022-11-11T09:06:19;6.30;;;3.73;;
920;SDS011;447;51.332;6.778;2022-11-11T09:09:03;4.33;;;3.63;;
920;SDS011;447;51.332;6.778;2022-11-11T09:11:50;5.43;;;3.47;;
920;SDS011;447;51.332;6.778;2022-11-11T09:14:37;10.10;;;4.00;;
920;SDS011;447;51.332;6.778;2022-11-11T09:17:22;5.27;;;4.03;;
920;SDS011;447;51.332;6.778;2022-11-11T09:20:07;8.50;;;4.00;;
920;SDS011;447;51.332;6.778;2022-11-11T09:22:52;6.23;;;3.93;;
920;SDS011;447;51.332;6.778;2022-11-11T09:25:42;4.50;;;3.53;;
920;SDS011;447;51.332;6.778;2022-11-11T09:28:26;3.93;;;3.53;;
920;SDS011;447;51.332;6.778;2022-11-11T09:31:11;5.40;;;3.43;;
920;SDS011;447;51.332;6.778;2022-11-11T09:33:55;5.73;;;3.80;;
920;SDS011;447;51.332;6.778;2022-11-11T09:36:46;5.80;;;3.33;;
920;SDS011;447;51.332;6.778;2022-11-11T09:39:31;5.07;;;3.63;;
920;SDS011;447;51.332;6.778;2022-11-11T09:45:20;4.80;;;3.53;;
920;SDS011;447;51.332;6.778;2022-11-11T09:51:26;5.03;;;3.43;;
920;SDS011;447;51.332;6.778;2022-11-11T09:54:18;5.07;;;3.30;;
920;SDS011;447;51.332;6.778;2022-11-11T09:57:41;5.70;;;3.50;;
920;SDS011;447;51.332;6.778;2022-11-11T10:01:01;4.27;;;2.87;;
920;SDS011;447;51.332;6.778;2022-11-11T10:10:52;4.23;;;3.00;;
920;SDS011;447;51.332;6.778;2022-11-11T10:13:39;5.00;;;3.30;;
920;SDS011;447;51.332;6.778;2022-11-11T10:16:27;5.37;;;3.43;;
920;SDS011;447;51.332;6.778;2022-11-11T10:19:29;3.87;;;3.43;;
920;SDS011;447;51.332;6.778;2022-11-11T10:22:24;4.30;;;3.47;;
920;SDS011;447;51.332;6.778;2022-11-11T10:25:28;10.10;;;3.20;;
920;SDS011;447;51.332;6.778;2022-11-11T10:28:17;5.47;;;3.60;;
920;SDS011;447;51.332;6.778;2022-11-11T10:31:04;5.20;;;3.10;;
920;SDS011;447;51.332;6.778;2022-11-11T10:36:49;5.23;;;2.97;;
920;SDS011;447;51.332;6.778;2022-11-11T10:40:06;7.00;;;3.50;;
920;SDS011;447;51.332;6.778;2022-11-11T10:43:23;4.33;;;3.20;;
920;SDS011;447;51.332;6.778;2022-11-11T10:51:50;3.33;;;2.50;;
920;SDS011;447;51.332;6.778;2022-11-11T10:54:49;4.60;;;3.20;;
920;SDS011;447;51.332;6.778;2022-11-11T10:57:56;4.33;;;2.80;;
920;SDS011;447;51.332;6.778;2022-11-11T11:01:01;6.17;;;3.37;;
920;SDS011;447;51.332;6.778;2022-11-11T11:03:49;5.90;;;3.27;;
920;SDS011;447;51.332;6.778;2022-11-11T11:06:41;3.50;;;2.87;;
920;SDS011;447;51.332;6.778;2022-11-11T11:12:50;4.43;;;2.87;;
920;SDS011;447;51.332;6.778;2022-11-11T11:15:53;3.80;;;3.10;;
920;SDS011;447;51.332;6.778;2022-11-11T11:19:04;6.20;;;3.30;;
920;SDS011;447;51.332;6.778;2022-11-11T11:22:04;5.80;;;3.30;;
920;SDS011;447;51.332;6.778;2022-11-11T11:24:52;4.97;;;3.10;;
920;SDS011;447;51.332;6.778;2022-11-11T11:28:04;5.70;;;3.17;;
920;SDS011;447;51.332;6.778;2022-11-11T11:31:05;3.93;;;2.43;;
920;SDS011;447;51.332;6.778;2022-11-11T11:33:52;4.70;;;3.30;;
920;SDS011;447;51.332;6.778;2022-11-11T11:36:40;5.63;;;3.20;;
920;SDS011;447;51.332;6.778;2022-11-11T11:39:35;3.33;;;2.73;;
920;SDS011;447;51.332;6.778;2022-11-11T11:45:20;3.60;;;2.70;;
920;SDS011;447;51.332;6.778;2022-11-11T11:48:38;4.50;;;3.10;;
920;SDS011;447;51.332;6.778;2022-11-11T12:00:30;4.63;;;2.60;;
920;SDS011;447;51.332;6.778;2022-11-11T12:06:44;4.10;;;2.47;;
920;SDS011;447;51.332;6.778;2022-11-11T12:29:16;4.80;;;2.87;;
920;SDS011;447;51.332;6.778;2022-11-11T12:31:29;3.67;;;2.53;;
920;SDS011;447;51.332;6.778;2022-11-11T12:40:57;3.90;;;2.67;;
920;SDS011;447;51.332;6.778;2022-11-11T13:15:10;4.13;;;2.80;;
920;SDS011;447;51.332;6.778;2022-11-11T13:17:59;3.80;;;2.33;;
920;SDS011;447;51.332;6.778;2022-11-11T13:20:58;4.60;;;2.57;;
920;SDS011;447;51.332;6.778;2022-11-11T13:23:53;4.40;;;2.30;;
920;SDS011;447;51.332;6.778;2022-11-11T13:27:15;4.43;;;2.57;;
920;SDS011;447;51.332;6.778;2022-11-11T13:33:23;5.00;;;2.10;;
920;SDS011;447;51.332;6.778;2022-11-11T13:36:11;2.50;;;2.10;;
920;SDS011;447;51.332;6.778;2022-11-11T13:39:01;3.27;;;2.20;;
920;SDS011;447;51.332;6.778;2022-11-11T13:41:50;2.93;;;2.37;;
920;SDS011;447;51.332;6.778;2022-11-11T13:44:58;4.10;;;2.67;;
920;SDS011;447;51.332;6.778;2022-11-11T13:47:45;5.17;;;2.40;;
920;SDS011;447;51.332;6.778;2022-11-11T13:50:36;4.90;;;2.60;;
920;SDS011;447;51.332;6.778;2022-11-11T13:53:28;2.70;;;2.07;;
920;SDS011;447;51.332;6.778;2022-11-11T13:56:27;2.80;;;2.50;;
920;SDS011;447;51.332;6.778;2022-11-11T14:07:55;3.93;;;2.40;;
920;SDS011;447;51.332;6.778;2022-11-11T14:10:46;3.40;;;2.23;;
920;SDS011;447;51.332;6.778;2022-11-11T14:13:38;3.93;;;2.60;;
920;SDS011;447;51.332;6.778;2022-11-11T14:19:31;4.20;;;2.20;;
920;SDS011;447;51.332;6.778;2022-11-11T14:28:30;4.53;;;2.40;;
920;SDS011;447;51.332;6.778;2022-11-11T14:34:09;4.13;;;2.57;;
920;SDS011;447;51.332;6.778;2022-11-11T14:37:34;3.07;;;2.03;;
920;SDS011;447;51.332;6.778;2022-11-11T14:40:34;3.27;;;2.30;;
920;SDS011;447;51.332;6.778;2022-11-11T14:46:15;5.77;;;2.20;;
920;SDS011;447;51.332;6.778;2022-11-11T14:49:00;5.20;;;2.93;;
920;SDS011;447;51.332;6.778;2022-11-11T14:51:59;2.40;;;2.10;;
920;SDS011;447;51.332;6.778;2022-11-11T14:58:00;2.57;;;2.20;;
920;SDS011;447;51.332;6.778;2022-11-11T15:00:52;4.63;;;2.23;;
920;SDS011;447;51.332;6.778;2022-11-11T15:04:02;3.43;;;2.13;;
920;SDS011;447;51.332;6.778;2022-11-11T15:06:57;2.93;;;1.90;;
920;SDS011;447;51.332;6.778;2022-11-11T15:12:44;3.10;;;2.60;;
920;SDS011;447;51.332;6.778;2022-11-11T15:18:46;3.27;;;2.07;;
920;SDS011;447;51.332;6.778;2022-11-11T15:25:33;2.40;;;1.80;;
920;SDS011;447;51.332;6.778;2022-11-11T15:28:47;3.77;;;2.20;;
920;SDS011;447;51.332;6.778;2022-11-11T15:38:13;4.00;;;2.30;;
920;SDS011;447;51.332;6.778;2022-11-11T15:41:16;3.10;;;2.07;;
920;SDS011;447;51.332;6.778;2022-11-11T15:44:09;2.07;;;1.80;;
920;SDS011;447;51.332;6.778;2022-11-11T15:47:05;2.73;;;1.90;;
920;SDS011;447;51.332;6.778;2022-11-11T15:49:52;3.50;;;2.27;;
920;SDS011;447;51.332;6.778;2022-11-11T15:52:40;2.50;;;1.87;;
920;SDS011;447;51.332;6.778;2022-11-11T16:01:10;5.77;;;2.40;;
920;SDS011;447;51.332;6.778;2022-11-11T16:03:55;2.53;;;1.90;;
920;SDS011;447;51.332;6.778;2022-11-11T16:06:43;1.83;;;1.60;;
920;SDS011;447;51.332;6.778;2022-11-11T16:09:29;4.00;;;2.53;;
920;SDS011;447;51.332;6.778;2022-11-11T16:12:17;2.97;;;2.13;;
920;SDS011;447;51.332;6.778;2022-11-11T16:15:06;2.93;;;2.10;;
920;SDS011;447;51.332;6.778;2022-11-11T16:18:02;3.47;;;2.50;;
920;SDS011;447;51.332;6.778;2022-11-11T16:23:43;3.00;;;2.27;;
920;SDS011;447;51.332;6.778;2022-11-11T16:26:31;2.77;;;1.87;;
920;SDS011;447;51.332;6.778;2022-11-11T16:29:17;3.10;;;1.93;;
920;SDS011;447;51.332;6.778;2022-11-11T16:32:18;3.23;;;2.00;;
920;SDS011;447;51.332;6.778;2022-11-11T16:35:24;2.80;;;2.43;;
920;SDS011;447;51.332;6.778;2022-11-11T16:38:32;2.50;;;2.23;;
920;SDS011;447;51.332;6.778;2022-11-11T16:41:27;2.40;;;1.93;;
920;SDS011;447;51.332;6.778;2022-11-11T16:44:35;4.27;;;2.80;;
920;SDS011;447;51.332;6.778;2022-11-11T16:50:26;3.80;;;2.57;;
920;SDS011;447;51.332;6.778;2022-11-11T16:53:22;3.20;;;2.27;;
920;SDS011;447;51.332;6.778;2022-11-11T16:56:26;3.70;;;2.23;;
920;SDS011;447;51.332;6.778;2022-11-11T16:59:18;2.93;;;2.63;;
920;SDS011;447;51.332;6.778;2022-11-11T17:02:03;4.20;;;2.60;;
920;SDS011;447;51.332;6.778;2022-11-11T17:05:02;3.30;;;2.70;;
920;SDS011;447;51.332;6.778;2022-11-11T17:07:49;4.63;;;2.50;;
920;SDS011;447;51.332;6.778;2022-11-11T17:10:37;3.20;;;2.43;;
920;SDS011;447;51.332;6.778;2022-11-11T17:13:25;3.83;;;2.70;;
920;SDS011;447;51.332;6.778;2022-11-11T17:16:11;5.13;;;3.00;;
920;SDS011;447;51.332;6.778;2022-11-11T17:19:02;3.80;;;2.30;;
920;SDS011;447;51.332;6.778;2022-11-11T17:21:47;2.90;;;2.30;;
920;SDS011;447;51.332;6.778;2022-11-11T17:24:32;3.83;;;2.30;;
920;SDS011;447;51.332;6.778;2022-11-11T17:27:17;4.43;;;2.47;;
920;SDS011;447;51.332;6.778;2022-11-11T17:30:01;5.30;;;2.60;;
920;SDS011;447;51.332;6.778;2022-11-11T17:32:46;3.33;;;2.10;;
920;SDS011;447;51.332;6.778;2022-11-11T17:35:31;6.23;;;2.67;;
920;SDS011;447;51.332;6.778;2022-11-11T17:38:16;3.70;;;2.60;;
920;SDS011;447;51.332;6.778;2022-11-11T17:41:01;3.47;;;3.17;;
920;SDS011;447;51.332;6.778;2022-11-11T17:43:46;3.30;;;2.40;;
920;SDS011;447;51.332;6.778;2022-11-11T17:46:31;4.60;;;2.33;;
920;SDS011;447;51.332;6.778;2022-11-11T17:49:15;4.10;;;2.60;;
920;SDS011;447;51.332;6.778;2022-11-11T17:52:00;4.97;;;3.50;;
920;SDS011;447;51.332;6.778;2022-11-11T17:54:44;7.63;;;3.53;;
920;SDS011;447;51.332;6.778;2022-11-11T17:57:29;4.13;;;3.10;;
920;SDS011;447;51.332;6.778;2022-11-11T18:00:20;5.70;;;3.60;;
920;SDS011;447;51.332;6.778;2022-11-11T18:03:05;5.00;;;3.50;;
920;SDS011;447;51.332;6.778;2022-11-11T18:05:52;4.40;;;3.13;;
920;SDS011;447;51.332;6.778;2022-11-11T18:08:39;4.63;;;3.20;;
920;SDS011;447;51.332;6.778;2022-11-11T18:11:24;4.50;;;3.23;;
920;SDS011;447;51.332;6.778;2022-11-11T18:14:09;5.07;;;2.90;;
920;SDS011;447;51.332;6.778;2022-11-11T18:16:54;5.13;;;3.07;;
920;SDS011;447;51.332;6.778;2022-11-11T18:19:39;4.37;;;3.33;;
920;SDS011;447;51.332;6.778;2022-11-11T18:22:23;4.23;;;3.70;;
920;SDS011;447;51.332;6.778;2022-11-11T18:25:10;5.60;;;3.43;;
920;SDS011;447;51.332;6.778;2022-11-11T18:27:57;4.50;;;3.30;;
920;SDS011;447;51.332;6.778;2022-11-11T18:30:41;5.83;;;3.00;;
920;SDS011;447;51.332;6.778;2022-11-11T18:33:28;4.97;;;3.57;;
920;SDS011;447;51.332;6.778;2022-11-11T18:36:14;6.43;;;4.00;;
920;SDS011;447;51.332;6.778;2022-11-11T18:39:00;4.30;;;3.00;;
920;SDS011;447;51.332;6.778;2022-11-11T18:41:47;3.47;;;2.77;;
920;SDS011;447;51.332;6.778;2022-11-11T18:44:31;3.40;;;2.80;;
920;SDS011;447;51.332;6.778;2022-11-11T18:47:16;4.83;;;2.83;;
920;SDS011;447;51.332;6.778;2022-11-11T18:50:00;7.13;;;4.17;;
920;SDS011;447;51.332;6.778;2022-11-11T18:52:45;4.57;;;3.47;;
920;SDS011;447;51.332;6.778;2022-11-11T18:55:29;4.13;;;3.07;;
920;SDS011;447;51.332;6.778;2022-11-11T18:58:15;4.20;;;3.20;;
920;SDS011;447;51.332;6.778;2022-11-11T19:01:03;4.80;;;3.23;;
920;SDS011;447;51.332;6.778;2022-11-11T19:04:00;4.40;;;3.50;;
920;SDS011;447;51.332;6.778;2022-11-11T19:06:51;4.73;;;2.93;;
920;SDS011;447;51.332;6.778;2022-11-11T19:09:39;4.13;;;2.80;;
920;SDS011;447;51.332;6.778;2022-11-11T19:12:23;6.70;;;2.60;;
920;SDS011;447;51.332;6.778;2022-11-11T19:15:08;4.93;;;3.13;;
920;SDS011;447;51.332;6.778;2022-11-11T19:17:54;3.53;;;2.93;;
920;SDS011;447;51.332;6.778;2022-11-11T19:20:39;4.77;;;2.90;;
920;SDS011;447;51.332;6.778;2022-11-11T19:23:23;3.10;;;2.40;;
920;SDS011;447;51.332;6.778;2022-11-11T19:26:13;4.00;;;2.70;;
920;SDS011;447;51.332;6.778;2022-11-11T19:28:59;3.03;;;2.50;;
920;SDS011;447;51.332;6.778;2022-11-11T19:31:46;3.60;;;2.83;;
920;SDS011;447;51.332;6.778;2022-11-11T19:34:33;3.20;;;2.40;;
920;SDS011;447;51.332;6.778;2022-11-11T19:37:22;3.40;;;2.87;;
920;SDS011;447;51.332;6.778;2022-11-11T19:40:12;4.00;;;2.70;;
920;SDS011;447;51.332;6.778;2022-11-11T19:42:57;5.40;;;3.00;;
920;SDS011;447;51.332;6.778;2022-11-11T19:45:41;4.10;;;2.80;;
920;SDS011;447;51.332;6.778;2022-11-11T19:48:30;2.60;;;2.07;;
920;SDS011;447;51.332;6.778;2022-11-11T19:51:16;4.50;;;2.70;;
920;SDS011;447;51.332;6.778;2022-11-11T19:54:02;4.43;;;2.70;;
920;SDS011;447;51.332;6.778;2022-11-11T19:56:49;6.30;;;2.83;;
920;SDS011;447;51.332;6.778;2022-11-11T19:59:36;2.97;;;2.50;;
920;SDS011;447;51.332;6.778;2022-11-11T20:02:23;3.10;;;2.50;;
920;SDS011;447;51.332;6.778;2022-11-11T20:05:07;3.10;;;2.73;;
920;SDS011;447;51.332;6.778;2022-11-11T20:07:55;2.53;;;2.03;;
920;SDS011;447;51.332;6.778;2022-11-11T20:11:15;3.30;;;2.67;;
920;SDS011;447;51.332;6.778;2022-11-11T20:14:07;3.97;;;2.40;;
920;SDS011;447;51.332;6.778;2022-11-11T20:16:52;3.03;;;2.50;;
920;SDS011;447;51.332;6.778;2022-11-11T20:19:39;3.70;;;2.40;;
920;SDS011;447;51.332;6.778;2022-11-11T20:22:27;2.50;;;2.10;;
920;SDS011;447;51.332;6.778;2022-11-11T20:25:15;2.80;;;2.33;;
920;SDS011;447;51.332;6.778;2022-11-11T20:28:00;4.83;;;2.30;;
920;SDS011;447;51.332;6.778;2022-11-11T20:30:46;3.23;;;2.80;;
920;SDS011;447;51.332;6.778;2022-11-11T20:33:35;4.83;;;2.77;;
920;SDS011;447;51.332;6.778;2022-11-11T20:36:23;3.50;;;2.70;;
920;SDS011;447;51.332;6.778;2022-11-11T20:39:30;3.50;;;2.60;;
920;SDS011;447;51.332;6.778;2022-11-11T20:42:17;3.20;;;2.20;;
920;SDS011;447;51.332;6.778;2022-11-11T20:45:04;3.57;;;2.70;;
920;SDS011;447;51.332;6.778;2022-11-11T20:47:51;3.83;;;2.33;;
920;SDS011;447;51.332;6.778;2022-11-11T20:50:36;2.83;;;1.97;;